sensor_id;sensor_type;location;lat;lon;timestamp;P1;durP1;ratioP1;P2;durP2;ratioP2
3843;SDS011;1937;51.444;6.484;2022-12-07T00:01:42;21.03;;;13.17;;
3843;SDS011;1937;51.444;6.484;2022-12-07T00:04:13;19.90;;;12.40;;
3843;SDS011;1937;51.444;6.484;2022-12-07T00:06:46;24.53;;;13.43;;
3843;SDS011;1937;51.444;6.484;2022-12-07T00:09:17;21.03;;;12.20;;
3843;SDS011;1937;51.444;6.484;2022-12-07T00:11:48;21.67;;;13.00;;
3843;SDS011;1937;51.444;6.484;2022-12-07T00:14:17;16.00;;;12.30;;
3843;SDS011;1937;51.444;6.484;2022-12-07T00:16:50;20.10;;;12.57;;
3843;SDS011;1937;51.444;6.484;2022-12-07T00:19:19;22.23;;;15.00;;
3843;SDS011;1937;51.444;6.484;2022-12-07T00:21:47;18.83;;;13.10;;
3843;SDS011;1937;51.444;6.484;2022-12-07T00:24:16;24.37;;;14.20;;
3843;SDS011;1937;51.444;6.484;2022-12-07T00:26:44;20.60;;;12.97;;
3843;SDS011;1937;51.444;6.484;2022-12-07T00:29:15;20.27;;;12.90;;
3843;SDS011;1937;51.444;6.484;2022-12-07T00:31:45;23.53;;;14.13;;
3843;SDS011;1937;51.444;6.484;2022-12-07T00:34:15;23.33;;;13.47;;
3843;SDS011;1937;51.444;6.484;2022-12-07T00:36:45;20.57;;;13.67;;
3843;SDS011;1937;51.444;6.484;2022-12-07T00:39:15;21.83;;;14.10;;
3843;SDS011;1937;51.444;6.484;2022-12-07T00:41:43;18.37;;;13.53;;
3843;SDS011;1937;51.444;6.484;2022-12-07T00:44:11;21.50;;;13.50;;
3843;SDS011;1937;51.444;6.484;2022-12-07T00:46:40;29.60;;;16.30;;
3843;SDS011;1937;51.444;6.484;2022-12-07T00:49:08;21.40;;;12.40;;
3843;SDS011;1937;51.444;6.484;2022-12-07T00:51:38;24.20;;;15.10;;
3843;SDS011;1937;51.444;6.484;2022-12-07T00:54:07;23.50;;;13.70;;
3843;SDS011;1937;51.444;6.484;2022-12-07T00:56:35;25.00;;;13.67;;
3843;SDS011;1937;51.444;6.484;2022-12-07T00:59:03;20.07;;;12.37;;
3843;SDS011;1937;51.444;6.484;2022-12-07T01:01:33;21.60;;;13.77;;
3843;SDS011;1937;51.444;6.484;2022-12-07T01:04:03;19.13;;;14.20;;
3843;SDS011;1937;51.444;6.484;2022-12-07T01:06:32;21.23;;;12.97;;
3843;SDS011;1937;51.444;6.484;2022-12-07T01:09:02;19.43;;;13.80;;
3843;SDS011;1937;51.444;6.484;2022-12-07T01:11:31;19.67;;;13.27;;
3843;SDS011;1937;51.444;6.484;2022-12-07T01:14:00;20.30;;;12.90;;
3843;SDS011;1937;51.444;6.484;2022-12-07T01:16:29;21.00;;;14.13;;
3843;SDS011;1937;51.444;6.484;2022-12-07T01:18:58;16.20;;;12.03;;
3843;SDS011;1937;51.444;6.484;2022-12-07T01:21:30;18.40;;;12.57;;
3843;SDS011;1937;51.444;6.484;2022-12-07T01:24:04;21.00;;;12.57;;
3843;SDS011;1937;51.444;6.484;2022-12-07T01:26:36;23.97;;;13.27;;
3843;SDS011;1937;51.444;6.484;2022-12-07T01:29:06;17.37;;;12.50;;
3843;SDS011;1937;51.444;6.484;2022-12-07T01:31:35;23.27;;;13.47;;
3843;SDS011;1937;51.444;6.484;2022-12-07T01:34:04;20.97;;;13.93;;
3843;SDS011;1937;51.444;6.484;2022-12-07T01:36:36;22.37;;;13.00;;
3843;SDS011;1937;51.444;6.484;2022-12-07T01:39:07;19.27;;;12.37;;
3843;SDS011;1937;51.444;6.484;2022-12-07T01:41:36;17.90;;;12.50;;
3843;SDS011;1937;51.444;6.484;2022-12-07T01:44:18;21.30;;;13.07;;
3843;SDS011;1937;51.444;6.484;2022-12-07T01:46:48;19.40;;;12.13;;
3843;SDS011;1937;51.444;6.484;2022-12-07T01:49:19;20.77;;;12.77;;
3843;SDS011;1937;51.444;6.484;2022-12-07T01:51:51;21.73;;;11.90;;
3843;SDS011;1937;51.444;6.484;2022-12-07T01:54:25;23.60;;;13.73;;
3843;SDS011;1937;51.444;6.484;2022-12-07T01:56:54;21.00;;;13.40;;
3843;SDS011;1937;51.444;6.484;2022-12-07T01:59:24;22.10;;;12.90;;
3843;SDS011;1937;51.444;6.484;2022-12-07T02:01:53;23.60;;;13.07;;
3843;SDS011;1937;51.444;6.484;2022-12-07T02:04:22;25.07;;;13.77;;
3843;SDS011;1937;51.444;6.484;2022-12-07T02:06:52;20.33;;;13.10;;
3843;SDS011;1937;51.444;6.484;2022-12-07T02:09:24;21.27;;;13.23;;
3843;SDS011;1937;51.444;6.484;2022-12-07T02:11:53;19.90;;;12.10;;
3843;SDS011;1937;51.444;6.484;2022-12-07T02:14:23;21.17;;;12.33;;
3843;SDS011;1937;51.444;6.484;2022-12-07T02:16:55;20.80;;;13.50;;
3843;SDS011;1937;51.444;6.484;2022-12-07T02:19:39;22.33;;;14.17;;
3843;SDS011;1937;51.444;6.484;2022-12-07T02:22:29;20.03;;;13.23;;
3843;SDS011;1937;51.444;6.484;2022-12-07T02:25:25;21.00;;;12.60;;
3843;SDS011;1937;51.444;6.484;2022-12-07T02:28:05;17.20;;;12.33;;
3843;SDS011;1937;51.444;6.484;2022-12-07T02:30:40;15.63;;;11.33;;
3843;SDS011;1937;51.444;6.484;2022-12-07T02:33:14;18.97;;;12.17;;
3843;SDS011;1937;51.444;6.484;2022-12-07T02:35:48;16.10;;;12.07;;
3843;SDS011;1937;51.444;6.484;2022-12-07T02:38:23;19.03;;;12.27;;
3843;SDS011;1937;51.444;6.484;2022-12-07T02:40:57;19.87;;;12.60;;
3843;SDS011;1937;51.444;6.484;2022-12-07T02:43:31;19.43;;;11.60;;
3843;SDS011;1937;51.444;6.484;2022-12-07T02:46:07;22.63;;;13.33;;
3843;SDS011;1937;51.444;6.484;2022-12-07T02:48:38;21.00;;;12.33;;
3843;SDS011;1937;51.444;6.484;2022-12-07T02:51:09;18.40;;;11.53;;
3843;SDS011;1937;51.444;6.484;2022-12-07T02:53:38;24.40;;;12.80;;
3843;SDS011;1937;51.444;6.484;2022-12-07T02:56:12;18.47;;;12.20;;
3843;SDS011;1937;51.444;6.484;2022-12-07T02:58:49;21.03;;;11.70;;
3843;SDS011;1937;51.444;6.484;2022-12-07T03:01:28;18.47;;;11.00;;
3843;SDS011;1937;51.444;6.484;2022-12-07T03:04:06;21.47;;;11.57;;
3843;SDS011;1937;51.444;6.484;2022-12-07T03:06:43;17.27;;;11.10;;
3843;SDS011;1937;51.444;6.484;2022-12-07T03:09:18;15.97;;;12.00;;
3843;SDS011;1937;51.444;6.484;2022-12-07T03:11:55;18.83;;;12.57;;
3843;SDS011;1937;51.444;6.484;2022-12-07T03:14:40;22.30;;;12.77;;
3843;SDS011;1937;51.444;6.484;2022-12-07T03:17:15;17.47;;;11.10;;
3843;SDS011;1937;51.444;6.484;2022-12-07T03:19:48;26.33;;;14.30;;
3843;SDS011;1937;51.444;6.484;2022-12-07T03:22:21;21.13;;;12.33;;
3843;SDS011;1937;51.444;6.484;2022-12-07T03:24:56;19.60;;;11.90;;
3843;SDS011;1937;51.444;6.484;2022-12-07T03:27:29;18.67;;;11.70;;
3843;SDS011;1937;51.444;6.484;2022-12-07T03:30:03;25.73;;;12.17;;
3843;SDS011;1937;51.444;6.484;2022-12-07T03:32:36;22.03;;;12.50;;
3843;SDS011;1937;51.444;6.484;2022-12-07T03:35:09;22.00;;;13.10;;
3843;SDS011;1937;51.444;6.484;2022-12-07T03:37:45;20.20;;;12.30;;
3843;SDS011;1937;51.444;6.484;2022-12-07T03:40:18;20.33;;;12.93;;
3843;SDS011;1937;51.444;6.484;2022-12-07T03:42:52;19.77;;;13.00;;
3843;SDS011;1937;51.444;6.484;2022-12-07T03:45:28;20.77;;;12.97;;
3843;SDS011;1937;51.444;6.484;2022-12-07T03:48:07;21.13;;;12.60;;
3843;SDS011;1937;51.444;6.484;2022-12-07T03:50:43;20.37;;;14.03;;
3843;SDS011;1937;51.444;6.484;2022-12-07T03:53:19;18.80;;;12.23;;
3843;SDS011;1937;51.444;6.484;2022-12-07T03:55:55;20.83;;;12.00;;
3843;SDS011;1937;51.444;6.484;2022-12-07T03:58:27;23.13;;;13.27;;
3843;SDS011;1937;51.444;6.484;2022-12-07T04:00:58;17.77;;;11.10;;
3843;SDS011;1937;51.444;6.484;2022-12-07T04:03:28;19.03;;;11.80;;
3843;SDS011;1937;51.444;6.484;2022-12-07T04:05:56;22.80;;;12.87;;
3843;SDS011;1937;51.444;6.484;2022-12-07T04:08:25;21.83;;;13.20;;
3843;SDS011;1937;51.444;6.484;2022-12-07T04:10:53;24.07;;;12.50;;
3843;SDS011;1937;51.444;6.484;2022-12-07T04:13:22;22.30;;;12.97;;
3843;SDS011;1937;51.444;6.484;2022-12-07T04:15:50;19.00;;;12.43;;
3843;SDS011;1937;51.444;6.484;2022-12-07T04:18:19;19.30;;;12.00;;
3843;SDS011;1937;51.444;6.484;2022-12-07T04:20:49;17.93;;;11.30;;
3843;SDS011;1937;51.444;6.484;2022-12-07T04:23:17;37.47;;;12.87;;
3843;SDS011;1937;51.444;6.484;2022-12-07T04:25:47;20.93;;;11.07;;
3843;SDS011;1937;51.444;6.484;2022-12-07T04:28:16;23.60;;;11.00;;
3843;SDS011;1937;51.444;6.484;2022-12-07T04:30:45;20.80;;;11.60;;
3843;SDS011;1937;51.444;6.484;2022-12-07T04:33:13;17.97;;;9.97;;
3843;SDS011;1937;51.444;6.484;2022-12-07T04:35:42;19.30;;;11.80;;
3843;SDS011;1937;51.444;6.484;2022-12-07T04:38:12;15.30;;;10.73;;
3843;SDS011;1937;51.444;6.484;2022-12-07T04:40:40;19.07;;;10.47;;
3843;SDS011;1937;51.444;6.484;2022-12-07T04:43:09;18.77;;;10.97;;
3843;SDS011;1937;51.444;6.484;2022-12-07T04:45:37;16.33;;;9.97;;
3843;SDS011;1937;51.444;6.484;2022-12-07T04:48:05;16.30;;;9.57;;
3843;SDS011;1937;51.444;6.484;2022-12-07T04:50:34;19.20;;;10.33;;
3843;SDS011;1937;51.444;6.484;2022-12-07T04:53:03;19.53;;;11.37;;
3843;SDS011;1937;51.444;6.484;2022-12-07T04:55:33;13.10;;;9.50;;
3843;SDS011;1937;51.444;6.484;2022-12-07T04:58:02;19.93;;;11.07;;
3843;SDS011;1937;51.444;6.484;2022-12-07T05:00:30;16.80;;;11.20;;
3843;SDS011;1937;51.444;6.484;2022-12-07T05:02:58;21.83;;;10.60;;
3843;SDS011;1937;51.444;6.484;2022-12-07T05:05:27;18.10;;;9.60;;
3843;SDS011;1937;51.444;6.484;2022-12-07T05:07:56;16.07;;;10.63;;
3843;SDS011;1937;51.444;6.484;2022-12-07T05:10:24;21.40;;;10.30;;
3843;SDS011;1937;51.444;6.484;2022-12-07T05:12:54;16.90;;;10.70;;
3843;SDS011;1937;51.444;6.484;2022-12-07T05:15:22;18.93;;;9.00;;
3843;SDS011;1937;51.444;6.484;2022-12-07T05:17:50;19.60;;;11.63;;
3843;SDS011;1937;51.444;6.484;2022-12-07T05:20:18;15.00;;;9.23;;
3843;SDS011;1937;51.444;6.484;2022-12-07T05:22:47;18.93;;;10.37;;
3843;SDS011;1937;51.444;6.484;2022-12-07T05:25:15;16.30;;;10.47;;
3843;SDS011;1937;51.444;6.484;2022-12-07T05:27:44;17.60;;;9.53;;
3843;SDS011;1937;51.444;6.484;2022-12-07T05:30:15;20.87;;;10.37;;
3843;SDS011;1937;51.444;6.484;2022-12-07T05:32:44;15.00;;;9.87;;
3843;SDS011;1937;51.444;6.484;2022-12-07T05:35:12;15.97;;;9.00;;
3843;SDS011;1937;51.444;6.484;2022-12-07T05:37:41;18.23;;;10.27;;
3843;SDS011;1937;51.444;6.484;2022-12-07T05:40:11;15.53;;;9.97;;
3843;SDS011;1937;51.444;6.484;2022-12-07T05:42:40;14.20;;;9.47;;
3843;SDS011;1937;51.444;6.484;2022-12-07T05:45:09;19.70;;;10.17;;
3843;SDS011;1937;51.444;6.484;2022-12-07T05:47:39;19.33;;;11.57;;
3843;SDS011;1937;51.444;6.484;2022-12-07T05:50:08;17.70;;;11.23;;
3843;SDS011;1937;51.444;6.484;2022-12-07T05:52:37;20.47;;;10.80;;
3843;SDS011;1937;51.444;6.484;2022-12-07T05:55:06;14.83;;;9.10;;
3843;SDS011;1937;51.444;6.484;2022-12-07T05:57:35;12.53;;;9.83;;
3843;SDS011;1937;51.444;6.484;2022-12-07T06:00:04;21.00;;;11.37;;
3843;SDS011;1937;51.444;6.484;2022-12-07T06:02:34;24.53;;;9.93;;
3843;SDS011;1937;51.444;6.484;2022-12-07T06:05:05;16.13;;;9.77;;
3843;SDS011;1937;51.444;6.484;2022-12-07T06:07:34;21.00;;;10.53;;
3843;SDS011;1937;51.444;6.484;2022-12-07T06:10:03;14.13;;;9.23;;
3843;SDS011;1937;51.444;6.484;2022-12-07T06:12:32;13.73;;;9.13;;
3843;SDS011;1937;51.444;6.484;2022-12-07T06:15:04;13.83;;;9.77;;
3843;SDS011;1937;51.444;6.484;2022-12-07T06:17:34;16.20;;;9.80;;
3843;SDS011;1937;51.444;6.484;2022-12-07T06:20:05;15.87;;;10.43;;
3843;SDS011;1937;51.444;6.484;2022-12-07T06:22:35;17.27;;;10.93;;
3843;SDS011;1937;51.444;6.484;2022-12-07T06:25:04;17.70;;;9.30;;
3843;SDS011;1937;51.444;6.484;2022-12-07T06:27:33;14.77;;;10.07;;
3843;SDS011;1937;51.444;6.484;2022-12-07T06:30:02;17.33;;;10.57;;
3843;SDS011;1937;51.444;6.484;2022-12-07T06:32:31;24.67;;;12.90;;
3843;SDS011;1937;51.444;6.484;2022-12-07T06:35:02;18.00;;;10.43;;
3843;SDS011;1937;51.444;6.484;2022-12-07T06:37:32;13.53;;;9.43;;
3843;SDS011;1937;51.444;6.484;2022-12-07T06:40:00;13.97;;;9.47;;
3843;SDS011;1937;51.444;6.484;2022-12-07T06:42:29;13.13;;;8.53;;
3843;SDS011;1937;51.444;6.484;2022-12-07T06:44:59;14.00;;;9.30;;
3843;SDS011;1937;51.444;6.484;2022-12-07T06:47:27;11.13;;;8.13;;
3843;SDS011;1937;51.444;6.484;2022-12-07T06:49:56;13.43;;;9.20;;
3843;SDS011;1937;51.444;6.484;2022-12-07T06:52:24;14.83;;;8.67;;
3843;SDS011;1937;51.444;6.484;2022-12-07T06:54:54;13.00;;;9.23;;
3843;SDS011;1937;51.444;6.484;2022-12-07T06:57:23;13.53;;;9.07;;
3843;SDS011;1937;51.444;6.484;2022-12-07T06:59:51;14.37;;;9.47;;
3843;SDS011;1937;51.444;6.484;2022-12-07T07:02:20;16.03;;;8.60;;
3843;SDS011;1937;51.444;6.484;2022-12-07T07:04:49;17.90;;;9.00;;
3843;SDS011;1937;51.444;6.484;2022-12-07T07:07:17;16.20;;;9.03;;
3843;SDS011;1937;51.444;6.484;2022-12-07T07:09:45;15.10;;;8.10;;
3843;SDS011;1937;51.444;6.484;2022-12-07T07:12:15;14.30;;;8.27;;
3843;SDS011;1937;51.444;6.484;2022-12-07T07:14:43;15.60;;;9.30;;
3843;SDS011;1937;51.444;6.484;2022-12-07T07:17:12;18.37;;;8.57;;
3843;SDS011;1937;51.444;6.484;2022-12-07T07:19:40;15.07;;;8.50;;
3843;SDS011;1937;51.444;6.484;2022-12-07T07:22:08;11.30;;;8.23;;
3843;SDS011;1937;51.444;6.484;2022-12-07T07:24:37;14.23;;;8.43;;
3843;SDS011;1937;51.444;6.484;2022-12-07T07:27:05;11.57;;;7.90;;
3843;SDS011;1937;51.444;6.484;2022-12-07T07:29:35;15.00;;;10.03;;
3843;SDS011;1937;51.444;6.484;2022-12-07T07:32:04;12.50;;;8.67;;
3843;SDS011;1937;51.444;6.484;2022-12-07T07:34:33;15.70;;;8.70;;
3843;SDS011;1937;51.444;6.484;2022-12-07T07:37:03;15.03;;;8.20;;
3843;SDS011;1937;51.444;6.484;2022-12-07T07:39:31;11.57;;;7.50;;
3843;SDS011;1937;51.444;6.484;2022-12-07T07:41:59;14.40;;;7.90;;
3843;SDS011;1937;51.444;6.484;2022-12-07T07:44:28;15.07;;;9.50;;
3843;SDS011;1937;51.444;6.484;2022-12-07T07:46:58;11.60;;;7.80;;
3843;SDS011;1937;51.444;6.484;2022-12-07T07:49:26;17.77;;;8.90;;
3843;SDS011;1937;51.444;6.484;2022-12-07T07:51:55;13.10;;;8.23;;
3843;SDS011;1937;51.444;6.484;2022-12-07T07:54:23;14.70;;;8.73;;
3843;SDS011;1937;51.444;6.484;2022-12-07T07:56:51;10.47;;;7.30;;
3843;SDS011;1937;51.444;6.484;2022-12-07T07:59:19;10.77;;;8.03;;
3843;SDS011;1937;51.444;6.484;2022-12-07T08:01:48;14.70;;;8.40;;
3843;SDS011;1937;51.444;6.484;2022-12-07T08:04:18;18.20;;;8.40;;
3843;SDS011;1937;51.444;6.484;2022-12-07T08:06:46;15.03;;;8.77;;
3843;SDS011;1937;51.444;6.484;2022-12-07T08:09:14;9.73;;;8.23;;
3843;SDS011;1937;51.444;6.484;2022-12-07T08:11:42;12.37;;;8.30;;
3843;SDS011;1937;51.444;6.484;2022-12-07T08:14:11;13.50;;;9.33;;
3843;SDS011;1937;51.444;6.484;2022-12-07T08:16:40;12.07;;;8.90;;
3843;SDS011;1937;51.444;6.484;2022-12-07T08:19:08;12.43;;;8.20;;
3843;SDS011;1937;51.444;6.484;2022-12-07T08:21:38;16.80;;;10.00;;
3843;SDS011;1937;51.444;6.484;2022-12-07T08:24:07;16.70;;;8.30;;
3843;SDS011;1937;51.444;6.484;2022-12-07T08:26:35;16.30;;;10.07;;
3843;SDS011;1937;51.444;6.484;2022-12-07T08:29:04;17.37;;;9.27;;
3843;SDS011;1937;51.444;6.484;2022-12-07T08:31:32;13.13;;;8.70;;
3843;SDS011;1937;51.444;6.484;2022-12-07T08:34:01;15.00;;;9.93;;
3843;SDS011;1937;51.444;6.484;2022-12-07T08:36:30;17.50;;;10.10;;
3843;SDS011;1937;51.444;6.484;2022-12-07T08:38:59;16.20;;;10.30;;
3843;SDS011;1937;51.444;6.484;2022-12-07T08:41:28;18.80;;;10.30;;
3843;SDS011;1937;51.444;6.484;2022-12-07T08:43:57;16.03;;;9.00;;
3843;SDS011;1937;51.444;6.484;2022-12-07T08:46:26;13.80;;;8.63;;
3843;SDS011;1937;51.444;6.484;2022-12-07T08:49:02;13.10;;;8.90;;
3843;SDS011;1937;51.444;6.484;2022-12-07T08:51:34;17.83;;;9.50;;
3843;SDS011;1937;51.444;6.484;2022-12-07T08:54:08;13.40;;;8.07;;
3843;SDS011;1937;51.444;6.484;2022-12-07T08:56:40;12.67;;;8.10;;
3843;SDS011;1937;51.444;6.484;2022-12-07T08:59:08;10.27;;;8.30;;
3843;SDS011;1937;51.444;6.484;2022-12-07T09:01:39;16.73;;;8.67;;
3843;SDS011;1937;51.444;6.484;2022-12-07T09:04:08;15.37;;;8.27;;
3843;SDS011;1937;51.444;6.484;2022-12-07T09:06:39;11.90;;;7.93;;
3843;SDS011;1937;51.444;6.484;2022-12-07T09:09:09;13.83;;;8.97;;
3843;SDS011;1937;51.444;6.484;2022-12-07T09:11:40;15.33;;;8.30;;
3843;SDS011;1937;51.444;6.484;2022-12-07T09:14:10;12.10;;;8.00;;
3843;SDS011;1937;51.444;6.484;2022-12-07T09:16:40;13.73;;;8.23;;
3843;SDS011;1937;51.444;6.484;2022-12-07T09:19:08;15.87;;;8.07;;
3843;SDS011;1937;51.444;6.484;2022-12-07T09:21:38;10.67;;;6.60;;
3843;SDS011;1937;51.444;6.484;2022-12-07T09:24:07;10.70;;;6.90;;
3843;SDS011;1937;51.444;6.484;2022-12-07T09:26:38;12.70;;;6.53;;
3843;SDS011;1937;51.444;6.484;2022-12-07T09:29:07;7.80;;;6.10;;
3843;SDS011;1937;51.444;6.484;2022-12-07T09:31:35;10.07;;;6.70;;
3843;SDS011;1937;51.444;6.484;2022-12-07T09:34:04;6.80;;;6.20;;
3843;SDS011;1937;51.444;6.484;2022-12-07T09:36:33;12.50;;;6.10;;
3843;SDS011;1937;51.444;6.484;2022-12-07T09:39:02;9.53;;;5.80;;
3843;SDS011;1937;51.444;6.484;2022-12-07T09:41:31;9.73;;;6.60;;
3843;SDS011;1937;51.444;6.484;2022-12-07T09:44:05;11.07;;;7.43;;
3843;SDS011;1937;51.444;6.484;2022-12-07T09:46:38;10.07;;;5.67;;
3843;SDS011;1937;51.444;6.484;2022-12-07T09:49:09;10.37;;;6.60;;
3843;SDS011;1937;51.444;6.484;2022-12-07T09:51:42;7.70;;;5.70;;
3843;SDS011;1937;51.444;6.484;2022-12-07T09:54:12;11.30;;;5.67;;
3843;SDS011;1937;51.444;6.484;2022-12-07T09:56:42;10.70;;;6.27;;
3843;SDS011;1937;51.444;6.484;2022-12-07T09:59:14;10.33;;;7.90;;
3843;SDS011;1937;51.444;6.484;2022-12-07T10:01:45;10.23;;;6.10;;
3843;SDS011;1937;51.444;6.484;2022-12-07T10:04:15;14.30;;;5.90;;
3843;SDS011;1937;51.444;6.484;2022-12-07T10:06:47;10.10;;;9.17;;
3843;SDS011;1937;51.444;6.484;2022-12-07T10:09:17;8.67;;;5.90;;
3843;SDS011;1937;51.444;6.484;2022-12-07T10:12:03;6.47;;;4.27;;
3843;SDS011;1937;51.444;6.484;2022-12-07T10:14:37;11.47;;;5.33;;
3843;SDS011;1937;51.444;6.484;2022-12-07T10:20:14;5.40;;;4.53;;
3843;SDS011;1937;51.444;6.484;2022-12-07T10:22:56;11.23;;;5.00;;
3843;SDS011;1937;51.444;6.484;2022-12-07T10:25:28;5.30;;;4.33;;
3843;SDS011;1937;51.444;6.484;2022-12-07T10:28:03;6.63;;;4.10;;
3843;SDS011;1937;51.444;6.484;2022-12-07T10:30:50;5.60;;;4.13;;
3843;SDS011;1937;51.444;6.484;2022-12-07T10:33:27;11.17;;;5.17;;
3843;SDS011;1937;51.444;6.484;2022-12-07T10:36:00;7.30;;;5.03;;
3843;SDS011;1937;51.444;6.484;2022-12-07T10:38:44;11.60;;;4.97;;
3843;SDS011;1937;51.444;6.484;2022-12-07T10:41:14;5.43;;;4.50;;
3843;SDS011;1937;51.444;6.484;2022-12-07T10:43:47;7.90;;;4.70;;
3843;SDS011;1937;51.444;6.484;2022-12-07T10:46:26;9.47;;;4.50;;
3843;SDS011;1937;51.444;6.484;2022-12-07T10:49:15;8.23;;;4.83;;
3843;SDS011;1937;51.444;6.484;2022-12-07T10:51:56;9.90;;;4.87;;
3843;SDS011;1937;51.444;6.484;2022-12-07T10:54:34;11.73;;;4.30;;
3843;SDS011;1937;51.444;6.484;2022-12-07T10:57:16;9.40;;;6.50;;
3843;SDS011;1937;51.444;6.484;2022-12-07T10:59:53;13.60;;;5.07;;
3843;SDS011;1937;51.444;6.484;2022-12-07T11:02:33;9.03;;;3.97;;
3843;SDS011;1937;51.444;6.484;2022-12-07T11:05:13;9.27;;;4.73;;
3843;SDS011;1937;51.444;6.484;2022-12-07T11:07:47;6.20;;;4.27;;
3843;SDS011;1937;51.444;6.484;2022-12-07T11:10:26;7.47;;;4.30;;
3843;SDS011;1937;51.444;6.484;2022-12-07T11:13:11;9.77;;;4.10;;
3843;SDS011;1937;51.444;6.484;2022-12-07T11:15:53;7.70;;;4.17;;
3843;SDS011;1937;51.444;6.484;2022-12-07T11:18:31;7.03;;;3.97;;
3843;SDS011;1937;51.444;6.484;2022-12-07T11:21:09;6.63;;;4.03;;
3843;SDS011;1937;51.444;6.484;2022-12-07T11:23:48;4.60;;;4.20;;
3843;SDS011;1937;51.444;6.484;2022-12-07T11:26:24;8.23;;;5.20;;
3843;SDS011;1937;51.444;6.484;2022-12-07T11:29:13;4.50;;;3.87;;
3843;SDS011;1937;51.444;6.484;2022-12-07T11:31:54;5.47;;;3.70;;
3843;SDS011;1937;51.444;6.484;2022-12-07T11:34:32;11.90;;;6.07;;
3843;SDS011;1937;51.444;6.484;2022-12-07T11:37:06;6.23;;;5.60;;
3843;SDS011;1937;51.444;6.484;2022-12-07T11:39:39;9.43;;;4.33;;
3843;SDS011;1937;51.444;6.484;2022-12-07T11:42:14;5.43;;;4.10;;
3843;SDS011;1937;51.444;6.484;2022-12-07T11:44:49;9.67;;;4.37;;
3843;SDS011;1937;51.444;6.484;2022-12-07T11:47:21;5.00;;;4.50;;
3843;SDS011;1937;51.444;6.484;2022-12-07T11:49:56;9.70;;;7.23;;
3843;SDS011;1937;51.444;6.484;2022-12-07T11:52:39;9.50;;;6.23;;
3843;SDS011;1937;51.444;6.484;2022-12-07T11:55:17;5.50;;;4.90;;
3843;SDS011;1937;51.444;6.484;2022-12-07T11:57:51;7.50;;;4.80;;
3843;SDS011;1937;51.444;6.484;2022-12-07T12:00:24;7.87;;;3.97;;
3843;SDS011;1937;51.444;6.484;2022-12-07T12:02:54;9.60;;;4.13;;
3843;SDS011;1937;51.444;6.484;2022-12-07T12:05:29;8.80;;;6.50;;
3843;SDS011;1937;51.444;6.484;2022-12-07T12:08:00;6.03;;;4.60;;
3843;SDS011;1937;51.444;6.484;2022-12-07T12:10:42;5.70;;;4.00;;
3843;SDS011;1937;51.444;6.484;2022-12-07T12:13:21;5.70;;;4.10;;
3843;SDS011;1937;51.444;6.484;2022-12-07T12:16:10;8.93;;;4.77;;
3843;SDS011;1937;51.444;6.484;2022-12-07T12:18:56;7.53;;;4.53;;
3843;SDS011;1937;51.444;6.484;2022-12-07T12:21:38;10.07;;;3.43;;
3843;SDS011;1937;51.444;6.484;2022-12-07T12:24:09;5.60;;;4.27;;
3843;SDS011;1937;51.444;6.484;2022-12-07T12:26:48;7.50;;;4.27;;
3843;SDS011;1937;51.444;6.484;2022-12-07T12:29:19;5.23;;;3.93;;
3843;SDS011;1937;51.444;6.484;2022-12-07T12:32:04;7.60;;;4.60;;
3843;SDS011;1937;51.444;6.484;2022-12-07T12:34:40;4.97;;;4.53;;
3843;SDS011;1937;51.444;6.484;2022-12-07T12:37:41;5.90;;;3.80;;
3843;SDS011;1937;51.444;6.484;2022-12-07T12:49:33;2.67;;;2.47;;
3843;SDS011;1937;51.444;6.484;2022-12-07T12:55:17;9.03;;;3.10;;
3843;SDS011;1937;51.444;6.484;2022-12-07T12:57:47;5.90;;;2.40;;
3843;SDS011;1937;51.444;6.484;2022-12-07T13:00:37;7.57;;;5.07;;
3843;SDS011;1937;51.444;6.484;2022-12-07T13:03:17;7.27;;;2.87;;
3843;SDS011;1937;51.444;6.484;2022-12-07T13:05:48;6.20;;;3.47;;
3843;SDS011;1937;51.444;6.484;2022-12-07T13:08:46;4.47;;;2.30;;
3843;SDS011;1937;51.444;6.484;2022-12-07T13:11:19;3.60;;;2.17;;
3843;SDS011;1937;51.444;6.484;2022-12-07T13:16:55;2.80;;;2.00;;
3843;SDS011;1937;51.444;6.484;2022-12-07T13:22:39;5.63;;;2.20;;
3843;SDS011;1937;51.444;6.484;2022-12-07T13:25:11;3.90;;;2.63;;
3843;SDS011;1937;51.444;6.484;2022-12-07T13:27:48;5.33;;;2.43;;
3843;SDS011;1937;51.444;6.484;2022-12-07T13:30:22;3.30;;;1.93;;
3843;SDS011;1937;51.444;6.484;2022-12-07T13:32:52;3.30;;;2.30;;
3843;SDS011;1937;51.444;6.484;2022-12-07T13:35:34;2.90;;;2.23;;
3843;SDS011;1937;51.444;6.484;2022-12-07T13:38:04;3.73;;;3.43;;
3843;SDS011;1937;51.444;6.484;2022-12-07T13:40:42;4.83;;;2.57;;
3843;SDS011;1937;51.444;6.484;2022-12-07T13:43:43;5.47;;;2.23;;
3843;SDS011;1937;51.444;6.484;2022-12-07T13:46:11;8.50;;;3.43;;
3843;SDS011;1937;51.444;6.484;2022-12-07T13:48:43;4.67;;;2.50;;
3843;SDS011;1937;51.444;6.484;2022-12-07T13:51:17;4.37;;;2.50;;
3843;SDS011;1937;51.444;6.484;2022-12-07T13:53:47;4.40;;;2.47;;
3843;SDS011;1937;51.444;6.484;2022-12-07T13:56:18;5.70;;;2.90;;
3843;SDS011;1937;51.444;6.484;2022-12-07T13:58:56;4.10;;;3.00;;
3843;SDS011;1937;51.444;6.484;2022-12-07T14:01:25;11.80;;;2.60;;
3843;SDS011;1937;51.444;6.484;2022-12-07T14:03:56;4.67;;;2.40;;
3843;SDS011;1937;51.444;6.484;2022-12-07T14:06:55;9.13;;;2.60;;
3843;SDS011;1937;51.444;6.484;2022-12-07T14:09:26;6.27;;;2.93;;
3843;SDS011;1937;51.444;6.484;2022-12-07T14:11:56;7.70;;;2.90;;
3843;SDS011;1937;51.444;6.484;2022-12-07T14:14:27;6.43;;;3.10;;
3843;SDS011;1937;51.444;6.484;2022-12-07T14:16:59;4.77;;;2.80;;
3843;SDS011;1937;51.444;6.484;2022-12-07T14:22:26;5.30;;;3.10;;
3843;SDS011;1937;51.444;6.484;2022-12-07T14:24:58;3.13;;;2.30;;
3843;SDS011;1937;51.444;6.484;2022-12-07T14:27:47;5.00;;;2.40;;
3843;SDS011;1937;51.444;6.484;2022-12-07T14:30:17;13.43;;;10.33;;
3843;SDS011;1937;51.444;6.484;2022-12-07T14:32:47;7.90;;;3.73;;
3843;SDS011;1937;51.444;6.484;2022-12-07T14:35:18;6.67;;;3.10;;
3843;SDS011;1937;51.444;6.484;2022-12-07T14:37:47;4.87;;;2.53;;
3843;SDS011;1937;51.444;6.484;2022-12-07T14:40:17;7.73;;;2.97;;
3843;SDS011;1937;51.444;6.484;2022-12-07T14:42:47;6.57;;;2.33;;
3843;SDS011;1937;51.444;6.484;2022-12-07T14:45:22;5.97;;;3.43;;
3843;SDS011;1937;51.444;6.484;2022-12-07T14:47:51;8.57;;;3.73;;
3843;SDS011;1937;51.444;6.484;2022-12-07T14:50:20;5.97;;;3.60;;
3843;SDS011;1937;51.444;6.484;2022-12-07T14:52:50;9.30;;;2.90;;
3843;SDS011;1937;51.444;6.484;2022-12-07T14:55:23;6.70;;;3.03;;
3843;SDS011;1937;51.444;6.484;2022-12-07T14:57:52;10.20;;;2.20;;
3843;SDS011;1937;51.444;6.484;2022-12-07T15:00:25;4.33;;;2.50;;
3843;SDS011;1937;51.444;6.484;2022-12-07T15:02:55;4.37;;;2.20;;
3843;SDS011;1937;51.444;6.484;2022-12-07T15:05:24;4.13;;;2.27;;
3843;SDS011;1937;51.444;6.484;2022-12-07T15:07:52;8.00;;;4.30;;
3843;SDS011;1937;51.444;6.484;2022-12-07T15:10:21;6.93;;;3.13;;
3843;SDS011;1937;51.444;6.484;2022-12-07T15:12:54;4.17;;;3.40;;
3843;SDS011;1937;51.444;6.484;2022-12-07T15:15:46;14.90;;;5.60;;
3843;SDS011;1937;51.444;6.484;2022-12-07T15:18:15;10.07;;;4.80;;
3843;SDS011;1937;51.444;6.484;2022-12-07T15:20:45;9.03;;;4.37;;
3843;SDS011;1937;51.444;6.484;2022-12-07T15:23:14;3.97;;;3.20;;
3843;SDS011;1937;51.444;6.484;2022-12-07T15:25:43;7.30;;;5.43;;
3843;SDS011;1937;51.444;6.484;2022-12-07T15:28:13;5.30;;;2.77;;
3843;SDS011;1937;51.444;6.484;2022-12-07T15:30:42;9.90;;;2.53;;
3843;SDS011;1937;51.444;6.484;2022-12-07T15:33:12;7.67;;;3.30;;
3843;SDS011;1937;51.444;6.484;2022-12-07T15:35:41;4.37;;;3.80;;
3843;SDS011;1937;51.444;6.484;2022-12-07T15:38:11;8.03;;;4.30;;
3843;SDS011;1937;51.444;6.484;2022-12-07T15:40:40;3.80;;;2.23;;
3843;SDS011;1937;51.444;6.484;2022-12-07T15:43:08;6.33;;;3.03;;
3843;SDS011;1937;51.444;6.484;2022-12-07T15:45:51;7.60;;;2.70;;
3843;SDS011;1937;51.444;6.484;2022-12-07T15:48:21;3.83;;;3.40;;
3843;SDS011;1937;51.444;6.484;2022-12-07T15:50:52;8.87;;;2.90;;
3843;SDS011;1937;51.444;6.484;2022-12-07T15:53:27;7.93;;;4.37;;
3843;SDS011;1937;51.444;6.484;2022-12-07T15:55:55;9.73;;;3.77;;